Time;durP1;ratioP1;P1;durP2;ratioP2;P2;SDS_P1;SDS_P2;PMS_P1;PMS_P2;Temp;Humidity;BMP_temperature;BMP_pressure;BME280_temperature;BME280_humidity;BME280_pressure;Samples;Min_cycle;Max_cycle;Signal;HPM_P1;HPM_P2
2023/10/25 00:00:07;;;;;;;1.05;0.90;;;;;;;;;;5017830;28;20029;-31
2023/10/25 00:02:33;;;;;;;1.40;1.20;;;;;;;;;;5017142;28;20121;-31
2023/10/25 00:04:59;;;;;;;2.47;0.95;;;;;;;;;;5017650;28;20022;-26
2023/10/25 00:07:25;;;;;;;1.25;0.98;;;;;;;;;;5017328;28;20014;-32
2023/10/25 00:09:51;;;;;;;1.70;1.13;;;;;;;;;;5017765;28;20109;-31
2023/10/25 00:12:17;;;;;;;2.83;0.90;;;;;;;;;;5017122;28;20056;-29
2023/10/25 00:14:44;;;;;;;2.30;1.33;;;;;;;;;;5017085;28;20516;-31
2023/10/25 00:17:10;;;;;;;2.00;1.10;;;;;;;;;;5016275;28;20030;-31
2023/10/25 00:19:36;;;;;;;1.75;1.30;;;;;;;;;;5017008;28;20041;-29
2023/10/25 00:22:02;;;;;;;4.15;1.65;;;;;;;;;;5016857;28;20056;-29
2023/10/25 00:24:28;;;;;;;2.30;1.10;;;;;;;;;;5016982;28;20065;-29
2023/10/25 00:26:54;;;;;;;1.13;0.90;;;;;;;;;;5016868;28;20022;-27
2023/10/25 00:29:21;;;;;;;1.45;1.00;;;;;;;;;;5016854;28;20360;-31
2023/10/25 00:31:47;;;;;;;1.00;0.90;;;;;;;;;;5016770;28;20131;-29
2023/10/25 00:34:13;;;;;;;2.40;0.98;;;;;;;;;;5017012;28;20030;-30
2023/10/25 00:36:39;;;;;;;1.20;1.10;;;;;;;;;;5017016;28;20029;-32
2023/10/25 00:39:05;;;;;;;1.58;1.40;;;;;;;;;;5016933;28;20450;-30
2023/10/25 00:41:32;;;;;;;1.35;1.00;;;;;;;;;;5015687;28;20457;-30
2023/10/25 00:43:58;;;;;;;1.17;1.00;;;;;;;;;;5017188;28;20022;-32
2023/10/25 00:46:27;;;;;;;1.67;1.17;;;;;;;;;;5017060;28;20053;-31
2023/10/25 00:48:57;;;;;;;1.15;1.05;;;;;;;;;;5016509;28;20513;-30
2023/10/25 00:51:25;;;;;;;1.48;0.80;;;;;;;;;;5016476;28;20199;-33
2023/10/25 00:53:52;;;;;;;4.10;1.10;;;;;;;;;;5016742;28;20026;-31
2023/10/25 00:56:20;;;;;;;2.17;1.02;;;;;;;;;;5016672;28;20065;-30
2023/10/25 00:58:48;;;;;;;0.93;0.77;;;;;;;;;;5016691;28;20045;-29
2023/10/25 01:01:15;;;;;;;1.10;0.90;;;;;;;;;;5016222;28;20022;-32
2023/10/25 01:03:41;;;;;;;1.75;1.13;;;;;;;;;;5016414;28;20103;-30
2023/10/25 01:06:07;;;;;;;2.08;0.98;;;;;;;;;;5017069;28;20037;-32
2023/10/25 01:08:33;;;;;;;2.03;0.90;;;;;;;;;;5016376;28;20113;-28
2023/10/25 01:11:00;;;;;;;0.95;0.95;;;;;;;;;;5017246;28;20034;-31
2023/10/25 01:13:26;;;;;;;0.80;0.80;;;;;;;;;;5015990;28;20025;-28
2023/10/25 01:15:53;;;;;;;1.42;1.15;;;;;;;;;;5016064;28;20472;-32
2023/10/25 01:18:19;;;;;;;2.20;0.70;;;;;;;;;;5016332;28;20385;-30
2023/10/25 01:20:46;;;;;;;1.25;0.77;;;;;;;;;;5016368;28;20111;-30
2023/10/25 01:23:12;;;;;;;1.50;1.08;;;;;;;;;;5016246;28;20026;-28
2023/10/25 01:25:38;;;;;;;1.40;1.20;;;;;;;;;;5014939;28;20030;-31
2023/10/25 01:28:05;;;;;;;1.70;0.90;;;;;;;;;;5015614;28;20022;-30
2023/10/25 01:30:32;;;;;;;1.02;0.95;;;;;;;;;;5015967;28;20119;-27
2023/10/25 01:33:01;;;;;;;1.05;0.95;;;;;;;;;;5016317;28;20026;-31
2023/10/25 01:35:27;;;;;;;0.82;0.82;;;;;;;;;;5015639;28;20093;-30
2023/10/25 01:37:54;;;;;;;1.48;0.80;;;;;;;;;;5015659;28;20110;-29
2023/10/25 01:40:20;;;;;;;1.50;0.98;;;;;;;;;;5016045;28;20501;-29
2023/10/25 01:42:46;;;;;;;1.15;0.90;;;;;;;;;;5015648;28;20018;-29
2023/10/25 01:45:12;;;;;;;1.10;1.00;;;;;;;;;;5015399;28;20030;-28
2023/10/25 01:47:39;;;;;;;0.93;0.82;;;;;;;;;;5015686;28;20026;-31
2023/10/25 01:50:06;;;;;;;0.93;0.80;;;;;;;;;;5015488;28;20052;-30
2023/10/25 01:52:32;;;;;;;1.25;0.70;;;;;;;;;;5015865;28;20029;-30
2023/10/25 01:54:58;;;;;;;0.90;0.90;;;;;;;;;;5015313;28;20022;-32
2023/10/25 01:57:24;;;;;;;3.13;1.15;;;;;;;;;;5015263;28;20024;-29
2023/10/25 01:59:51;;;;;;;1.02;0.88;;;;;;;;;;5015264;28;20030;-30
2023/10/25 02:02:17;;;;;;;0.75;0.75;;;;;;;;;;5015132;28;20060;-29
2023/10/25 02:04:43;;;;;;;0.80;0.73;;;;;;;;;;5015165;28;20036;-26
2023/10/25 02:07:09;;;;;;;2.55;1.20;;;;;;;;;;5015136;28;20083;-30
2023/10/25 02:09:36;;;;;;;1.55;1.15;;;;;;;;;;5015044;28;20030;-28
2023/10/25 02:12:02;;;;;;;1.40;0.98;;;;;;;;;;5014925;28;20030;-30
2023/10/25 02:14:28;;;;;;;1.20;1.10;;;;;;;;;;5015209;28;20033;-29
2023/10/25 02:16:54;;;;;;;0.88;0.88;;;;;;;;;;5015254;28;20122;-27
2023/10/25 02:19:20;;;;;;;3.33;1.10;;;;;;;;;;5014070;28;20025;-30
2023/10/25 02:21:46;;;;;;;1.35;1.00;;;;;;;;;;5015360;28;20091;-32
2023/10/25 02:24:15;;;;;;;3.85;1.08;;;;;;;;;;5014942;28;20026;-28
2023/10/25 02:26:44;;;;;;;1.05;0.90;;;;;;;;;;5015144;28;20037;-31
2023/10/25 02:29:10;;;;;;;1.17;1.08;;;;;;;;;;5015259;28;20056;-28
2023/10/25 02:31:37;;;;;;;1.08;0.90;;;;;;;;;;5015161;28;20029;-30
2023/10/25 02:34:04;;;;;;;1.00;0.93;;;;;;;;;;5013873;28;20358;-31
2023/10/25 02:36:30;;;;;;;1.13;0.90;;;;;;;;;;5014833;28;20044;-30
2023/10/25 02:38:57;;;;;;;1.10;0.90;;;;;;;;;;5015311;28;20030;-29
2023/10/25 02:41:23;;;;;;;1.65;1.13;;;;;;;;;;5017659;28;20107;-30
2023/10/25 02:43:59;;;;;;;1.05;0.95;;;;;;;;;;5019517;28;20397;-30
2023/10/25 02:46:26;;;;;;;0.75;0.75;;;;;;;;;;5018850;28;20022;-28
2023/10/25 02:48:53;;;;;;;1.45;1.35;;;;;;;;;;5019111;28;20034;-27
2023/10/25 02:51:19;;;;;;;1.33;0.80;;;;;;;;;;5018786;28;20055;-30
2023/10/25 02:53:45;;;;;;;1.00;0.90;;;;;;;;;;5019143;28;20033;-28
2023/10/25 02:56:12;;;;;;;1.05;0.93;;;;;;;;;;5018645;28;20472;-29
2023/10/25 02:58:38;;;;;;;0.90;0.80;;;;;;;;;;5018814;28;20038;-30
2023/10/25 03:01:05;;;;;;;1.10;1.02;;;;;;;;;;5018460;28;20041;-29
2023/10/25 03:03:31;;;;;;;1.02;0.75;;;;;;;;;;5018543;28;20120;-29
2023/10/25 03:05:58;;;;;;;1.45;1.15;;;;;;;;;;5018482;28;20112;-28
2023/10/25 03:08:24;;;;;;;1.38;0.90;;;;;;;;;;5018419;28;20044;-30
2023/10/25 03:10:50;;;;;;;0.70;0.70;;;;;;;;;;5018323;28;20022;-28
2023/10/25 03:13:16;;;;;;;0.68;0.65;;;;;;;;;;5018268;28;20127;-32
2023/10/25 03:15:43;;;;;;;1.08;0.98;;;;;;;;;;5018234;28;20036;-29
2023/10/25 03:18:09;;;;;;;0.98;0.70;;;;;;;;;;5018183;28;20037;-31
2023/10/25 03:20:35;;;;;;;0.80;0.80;;;;;;;;;;5018097;28;20026;-28
2023/10/25 03:23:02;;;;;;;1.80;1.00;;;;;;;;;;5017993;28;20080;-30
2023/10/25 03:25:28;;;;;;;2.08;0.85;;;;;;;;;;5018386;28;20100;-31
2023/10/25 03:27:54;;;;;;;1.55;1.00;;;;;;;;;;5018012;28;20049;-31
2023/10/25 03:30:20;;;;;;;1.10;1.00;;;;;;;;;;5018013;28;20460;-32
2023/10/25 03:32:46;;;;;;;1.92;1.10;;;;;;;;;;5018664;28;20440;-27
2023/10/25 03:35:12;;;;;;;1.00;0.90;;;;;;;;;;5018126;28;20026;-30
2023/10/25 03:37:42;;;;;;;1.40;1.02;;;;;;;;;;5017808;28;20029;-26
2023/10/25 03:40:09;;;;;;;1.70;1.00;;;;;;;;;;5018193;28;20030;-27
2023/10/25 03:42:35;;;;;;;1.83;1.10;;;;;;;;;;5017911;28;20068;-29
2023/10/25 03:45:02;;;;;;;3.30;0.90;;;;;;;;;;5017655;28;20066;-30
2023/10/25 03:47:28;;;;;;;1.85;1.02;;;;;;;;;;5017914;28;20026;-30
2023/10/25 03:49:54;;;;;;;1.20;0.73;;;;;;;;;;5017583;28;20095;-30
2023/10/25 03:52:21;;;;;;;1.63;0.70;;;;;;;;;;5017609;28;20030;-31
2023/10/25 03:54:47;;;;;;;0.77;0.77;;;;;;;;;;5017470;28;20021;-30
2023/10/25 03:57:13;;;;;;;0.88;0.85;;;;;;;;;;5017739;28;20121;-32
2023/10/25 03:59:39;;;;;;;2.08;0.90;;;;;;;;;;5017407;28;20335;-26
2023/10/25 04:02:05;;;;;;;1.25;1.08;;;;;;;;;;5017206;28;20116;-29
2023/10/25 04:04:31;;;;;;;1.52;0.95;;;;;;;;;;4996691;28;20035;-30
2023/10/25 04:06:58;;;;;;;2.38;1.33;;;;;;;;;;4996525;28;20025;-28
2023/10/25 04:09:24;;;;;;;1.98;1.20;;;;;;;;;;4997548;28;20106;-27
2023/10/25 04:11:50;;;;;;;0.88;0.88;;;;;;;;;;4997684;28;20413;-30
2023/10/25 04:14:16;;;;;;;1.67;1.15;;;;;;;;;;4997776;28;20038;-27
2023/10/25 04:16:42;;;;;;;1.20;0.90;;;;;;;;;;4997932;28;20034;-30
2023/10/25 04:19:08;;;;;;;1.63;0.88;;;;;;;;;;4997397;28;20037;-31
2023/10/25 04:21:34;;;;;;;0.90;0.77;;;;;;;;;;4997099;28;20026;-26
2023/10/25 04:24:01;;;;;;;2.15;0.90;;;;;;;;;;4997184;28;20026;-27
2023/10/25 04:26:28;;;;;;;1.40;1.08;;;;;;;;;;4997928;28;20027;-27
2023/10/25 04:28:54;;;;;;;2.55;0.80;;;;;;;;;;4997421;28;20018;-28
2023/10/25 04:31:21;;;;;;;1.05;0.68;;;;;;;;;;4997433;28;20041;-28
2023/10/25 04:33:50;;;;;;;2.47;0.90;;;;;;;;;;4996989;28;20030;-27
2023/10/25 04:36:16;;;;;;;1.30;0.95;;;;;;;;;;4996985;28;20030;-27
2023/10/25 04:38:42;;;;;;;0.95;0.82;;;;;;;;;;4997153;28;20033;-30
2023/10/25 04:41:08;;;;;;;1.60;1.42;;;;;;;;;;4996760;28;20034;-27
2023/10/25 04:43:34;;;;;;;1.60;0.80;;;;;;;;;;4996895;28;20022;-27
2023/10/25 04:46:03;;;;;;;3.95;0.70;;;;;;;;;;4997032;28;20019;-30
2023/10/25 04:48:29;;;;;;;0.80;0.80;;;;;;;;;;4996847;28;20018;-29
2023/10/25 04:50:55;;;;;;;2.08;1.00;;;;;;;;;;4997214;28;20157;-30
2023/10/25 04:53:21;;;;;;;3.97;0.90;;;;;;;;;;4996697;28;20026;-27
2023/10/25 04:55:47;;;;;;;1.75;1.00;;;;;;;;;;4996705;28;20030;-30
2023/10/25 04:58:14;;;;;;;3.60;0.77;;;;;;;;;;4996818;28;20058;-29
2023/10/25 05:00:40;;;;;;;1.42;0.90;;;;;;;;;;4996622;28;20030;-29
2023/10/25 05:03:10;;;;;;;0.90;0.90;;;;;;;;;;5003995;28;20509;-31
2023/10/25 05:05:40;;;;;;;3.83;1.20;;;;;;;;;;5016505;28;20320;-32
2023/10/25 05:08:07;;;;;;;2.25;1.15;;;;;;;;;;5016032;28;20028;-28
2023/10/25 05:10:34;;;;;;;2.13;1.15;;;;;;;;;;5016234;28;20033;-28
2023/10/25 05:13:00;;;;;;;1.65;1.15;;;;;;;;;;5016164;28;20041;-30
2023/10/25 05:15:28;;;;;;;1.15;1.05;;;;;;;;;;5015989;28;20032;-30
2023/10/25 05:17:54;;;;;;;4.55;1.10;;;;;;;;;;5016293;28;20471;-29
2023/10/25 05:20:20;;;;;;;9.63;1.27;;;;;;;;;;5016098;28;20026;-29
2023/10/25 05:22:56;;;;;;;1.38;0.90;;;;;;;;;;5015807;28;20025;-30
2023/10/25 05:25:22;;;;;;;3.10;0.88;;;;;;;;;;5014781;28;20026;-30
2023/10/25 05:27:49;;;;;;;3.15;1.55;;;;;;;;;;5015612;28;20105;-31
2023/10/25 05:30:15;;;;;;;2.83;1.08;;;;;;;;;;5015652;28;20050;-30
2023/10/25 05:32:48;;;;;;;3.13;0.80;;;;;;;;;;5015753;28;20101;-33
2023/10/25 05:35:14;;;;;;;1.48;0.82;;;;;;;;;;5015901;28;20034;-32
2023/10/25 05:37:41;;;;;;;1.73;1.10;;;;;;;;;;5015762;28;20334;-30
2023/10/25 05:40:07;;;;;;;2.90;1.08;;;;;;;;;;5015575;28;20519;-29
2023/10/25 05:42:38;;;;;;;1.13;0.75;;;;;;;;;;5015563;28;20022;-32
2023/10/25 05:45:04;;;;;;;1.67;1.08;;;;;;;;;;5015702;28;20041;-28
2023/10/25 05:47:31;;;;;;;1.23;1.13;;;;;;;;;;5015209;28;20026;-32
2023/10/25 05:49:57;;;;;;;1.63;1.50;;;;;;;;;;5015565;28;20081;-30
2023/10/25 05:52:23;;;;;;;5.28;1.20;;;;;;;;;;5015031;28;20045;-31
2023/10/25 05:54:50;;;;;;;6.38;0.93;;;;;;;;;;5014972;28;20030;-32
2023/10/25 05:57:16;;;;;;;2.13;0.80;;;;;;;;;;5015014;28;20028;-30
2023/10/25 05:59:42;;;;;;;1.08;0.70;;;;;;;;;;5015037;28;20026;-31
2023/10/25 06:02:09;;;;;;;7.15;1.10;;;;;;;;;;5014596;28;20084;-31
2023/10/25 06:04:37;;;;;;;4.35;0.80;;;;;;;;;;5014241;28;20026;-28
2023/10/25 06:07:03;;;;;;;3.22;1.55;;;;;;;;;;5015262;28;20093;-28
2023/10/25 06:09:29;;;;;;;2.60;1.13;;;;;;;;;;5015383;28;20100;-31
2023/10/25 06:11:56;;;;;;;0.82;0.65;;;;;;;;;;5015191;28;20033;-27
2023/10/25 06:14:22;;;;;;;2.17;1.30;;;;;;;;;;5014472;28;20025;-32
2023/10/25 06:16:48;;;;;;;2.35;1.08;;;;;;;;;;5014540;28;20025;-30
2023/10/25 06:19:14;;;;;;;0.88;0.82;;;;;;;;;;5014710;28;20076;-31
2023/10/25 06:21:41;;;;;;;2.55;1.30;;;;;;;;;;5014500;28;20029;-31
2023/10/25 06:24:07;;;;;;;2.15;0.80;;;;;;;;;;5014519;28;20033;-28
2023/10/25 06:26:33;;;;;;;3.95;1.00;;;;;;;;;;5015026;28;20338;-32
2023/10/25 06:28:59;;;;;;;3.13;0.80;;;;;;;;;;5014834;28;20092;-29
2023/10/25 06:31:25;;;;;;;3.10;1.00;;;;;;;;;;5015275;28;20030;-29
2023/10/25 06:33:51;;;;;;;3.15;1.25;;;;;;;;;;5014720;28;20033;-30
2023/10/25 06:36:18;;;;;;;3.08;1.20;;;;;;;;;;5014754;28;20026;-27
2023/10/25 06:38:44;;;;;;;4.45;1.10;;;;;;;;;;5014748;28;20029;-30
2023/10/25 06:41:17;;;;;;;2.67;0.82;;;;;;;;;;5014619;28;20037;-30
2023/10/25 06:43:44;;;;;;;2.95;1.10;;;;;;;;;;5014469;28;20036;-30
2023/10/25 06:46:11;;;;;;;7.25;0.85;;;;;;;;;;5014791;28;20433;-27
2023/10/25 06:48:38;;;;;;;2.25;0.90;;;;;;;;;;5015004;28;20030;-30
2023/10/25 06:51:08;;;;;;;1.10;0.90;;;;;;;;;;5014515;28;20044;-31
2023/10/25 06:53:38;;;;;;;1.77;0.85;;;;;;;;;;5014668;28;20180;-31
2023/10/25 06:56:05;;;;;;;8.55;1.38;;;;;;;;;;5014483;28;20029;-31
2023/10/25 06:58:32;;;;;;;9.13;2.92;;;;;;;;;;5013493;28;20026;-30
2023/10/25 07:00:59;;;;;;;2.55;1.10;;;;;;;;;;5013495;28;20030;-27
2023/10/25 07:03:28;;;;;;;1.60;1.08;;;;;;;;;;5014336;28;20081;-27
2023/10/25 07:05:56;;;;;;;3.08;1.15;;;;;;;;;;5014532;28;20026;-30
2023/10/25 07:08:22;;;;;;;1.95;0.82;;;;;;;;;;5014490;28;20026;-27
2023/10/25 07:10:48;;;;;;;1.02;0.75;;;;;;;;;;5014372;28;20033;-26
2023/10/25 07:13:14;;;;;;;2.58;1.20;;;;;;;;;;5014218;28;20029;-32
2023/10/25 07:15:41;;;;;;;2.85;1.25;;;;;;;;;;5014384;28;20042;-29
2023/10/25 07:18:07;;;;;;;3.20;1.17;;;;;;;;;;5014931;28;20034;-28
2023/10/25 07:20:33;;;;;;;6.53;1.10;;;;;;;;;;5014226;28;20504;-31
2023/10/25 07:23:00;;;;;;;1.33;0.85;;;;;;;;;;5014444;28;20038;-30
2023/10/25 07:25:28;;;;;;;1.35;0.95;;;;;;;;;;5014188;28;20026;-33
2023/10/25 07:27:54;;;;;;;2.42;0.90;;;;;;;;;;5017623;28;20110;-29
2023/10/25 07:30:20;;;;;;;2.30;1.60;;;;;;;;;;5018039;28;20049;-31
2023/10/25 07:32:46;;;;;;;1.33;0.90;;;;;;;;;;5017835;28;20056;-32
2023/10/25 07:35:12;;;;;;;2.10;0.75;;;;;;;;;;5018123;28;20469;-29
2023/10/25 07:37:39;;;;;;;2.95;1.13;;;;;;;;;;5017779;28;20034;-28
2023/10/25 07:40:05;;;;;;;2.83;1.00;;;;;;;;;;5018261;28;20022;-27
2023/10/25 07:42:33;;;;;;;1.70;1.60;;;;;;;;;;5017717;28;20029;-26
2023/10/25 07:44:59;;;;;;;2.20;1.15;;;;;;;;;;5017692;28;20488;-30
2023/10/25 07:47:26;;;;;;;1.92;0.70;;;;;;;;;;5017869;28;20041;-27
2023/10/25 07:49:52;;;;;;;3.83;1.00;;;;;;;;;;5017669;28;20017;-30
2023/10/25 07:52:18;;;;;;;5.25;1.00;;;;;;;;;;5017874;28;20029;-31
2023/10/25 07:54:44;;;;;;;9.25;1.65;;;;;;;;;;5017632;28;20093;-30
2023/10/25 07:57:10;;;;;;;1.58;0.65;;;;;;;;;;5017527;28;20453;-28
2023/10/25 07:59:37;;;;;;;4.13;1.00;;;;;;;;;;5017170;28;20038;-32
2023/10/25 08:02:03;;;;;;;3.67;1.25;;;;;;;;;;5016940;28;20210;-29
2023/10/25 08:04:30;;;;;;;1.35;0.93;;;;;;;;;;5016879;28;20171;-29
2023/10/25 08:06:56;;;;;;;5.18;1.90;;;;;;;;;;5017332;28;20026;-30
2023/10/25 08:09:22;;;;;;;1.50;1.27;;;;;;;;;;5016135;28;20477;-29
2023/10/25 08:11:48;;;;;;;1.75;0.90;;;;;;;;;;5017238;28;20026;-31
2023/10/25 08:14:14;;;;;;;0.98;0.60;;;;;;;;;;5017269;28;20052;-27
2023/10/25 08:16:42;;;;;;;0.90;0.70;;;;;;;;;;5017030;28;20025;-30
2023/10/25 08:19:08;;;;;;;0.73;0.60;;;;;;;;;;5016966;28;20068;-32
2023/10/25 08:21:38;;;;;;;4.07;0.85;;;;;;;;;;5015863;28;20038;-29
2023/10/25 08:24:07;;;;;;;0.63;0.63;;;;;;;;;;5016765;28;20037;-29
2023/10/25 08:26:40;;;;;;;1.40;1.05;;;;;;;;;;5016111;28;20496;-30
2023/10/25 08:29:07;;;;;;;2.90;1.80;;;;;;;;;;5016950;28;20037;-30
2023/10/25 08:31:33;;;;;;;3.75;1.38;;;;;;;;;;5017537;28;20053;-29
2023/10/25 08:34:00;;;;;;;1.58;0.90;;;;;;;;;;5016957;28;20041;-33
2023/10/25 08:36:28;;;;;;;4.45;1.30;;;;;;;;;;5016858;28;20030;-30
2023/10/25 08:38:55;;;;;;;1.65;1.00;;;;;;;;;;5015921;28;20108;-30
2023/10/25 08:41:24;;;;;;;1.95;1.15;;;;;;;;;;5016452;28;20064;-30
2023/10/25 08:43:52;;;;;;;3.65;0.73;;;;;;;;;;5016456;28;20104;-31
2023/10/25 08:46:20;;;;;;;1.50;0.73;;;;;;;;;;5016179;28;20025;-30
2023/10/25 08:48:47;;;;;;;5.60;0.98;;;;;;;;;;5016775;28;20022;-31
2023/10/25 08:51:14;;;;;;;1.13;0.73;;;;;;;;;;5016415;28;20037;-31
2023/10/25 08:53:41;;;;;;;5.05;1.10;;;;;;;;;;5016342;28;20087;-29
2023/10/25 08:56:08;;;;;;;2.50;0.70;;;;;;;;;;5016407;28;20105;-30
2023/10/25 08:58:34;;;;;;;12.75;2.95;;;;;;;;;;5016321;28;20034;-29
2023/10/25 09:01:00;;;;;;;1.33;0.90;;;;;;;;;;5015895;28;20017;-29
2023/10/25 09:03:33;;;;;;;3.63;0.90;;;;;;;;;;5014740;28;20060;-31
2023/10/25 09:06:00;;;;;;;2.50;0.88;;;;;;;;;;5014879;28;20093;-30
2023/10/25 09:08:26;;;;;;;3.53;2.13;;;;;;;;;;5016016;28;20050;-28
2023/10/25 09:10:56;;;;;;;1.40;0.90;;;;;;;;;;5015985;28;20404;-26
2023/10/25 09:13:23;;;;;;;2.08;1.00;;;;;;;;;;5015710;28;20045;-31
2023/10/25 09:15:49;;;;;;;3.72;0.98;;;;;;;;;;5016384;28;20092;-32
2023/10/25 09:18:15;;;;;;;1.95;1.10;;;;;;;;;;5015759;28;20036;-28
2023/10/25 09:20:41;;;;;;;1.52;0.90;;;;;;;;;;5014924;28;20034;-27
2023/10/25 09:23:12;;;;;;;3.13;1.33;;;;;;;;;;5015974;28;20105;-29
2023/10/25 09:25:38;;;;;;;14.82;1.45;;;;;;;;;;5015884;28;20022;-31
2023/10/25 09:28:05;;;;;;;2.42;0.90;;;;;;;;;;5016169;28;20030;-32
2023/10/25 09:30:31;;;;;;;2.55;1.00;;;;;;;;;;5014759;28;20412;-29
2023/10/25 09:32:58;;;;;;;3.05;0.85;;;;;;;;;;5015596;28;20354;-31
2023/10/25 09:35:24;;;;;;;2.33;1.05;;;;;;;;;;5015555;28;20053;-30
2023/10/25 09:37:50;;;;;;;4.80;1.40;;;;;;;;;;5015672;28;20044;-26
2023/10/25 09:40:16;;;;;;;3.13;1.10;;;;;;;;;;5014366;28;20465;-31
2023/10/25 09:42:48;;;;;;;1.50;0.98;;;;;;;;;;5015429;28;20029;-29
2023/10/25 09:45:16;;;;;;;1.20;0.85;;;;;;;;;;5015935;28;20346;-31
2023/10/25 09:47:43;;;;;;;0.82;0.82;;;;;;;;;;5015228;28;20026;-32
2023/10/25 09:50:21;;;;;;;4.72;0.75;;;;;;;;;;5015287;28;20049;-31
2023/10/25 09:52:50;;;;;;;4.22;1.35;;;;;;;;;;5015472;28;20026;-29
2023/10/25 09:55:21;;;;;;;1.88;1.13;;;;;;;;;;5015430;28;20468;-30
2023/10/25 09:57:48;;;;;;;2.95;1.80;;;;;;;;;;5015375;28;20410;-33
2023/10/25 10:00:14;;;;;;;6.90;1.65;;;;;;;;;;5014998;28;20472;-32
2023/10/25 10:03:03;;;;;;;2.40;0.90;;;;;;;;;;5015205;28;20050;-30
2023/10/25 10:05:48;;;;;;;4.03;0.80;;;;;;;;;;5015595;28;20361;-32
2023/10/25 10:08:17;;;;;;;5.75;0.88;;;;;;;;;;5014934;28;20041;-31
2023/10/25 10:10:56;;;;;;;1.75;0.77;;;;;;;;;;5014933;28;20022;-31
2023/10/25 10:13:23;;;;;;;2.22;0.95;;;;;;;;;;5015015;28;20449;-30
2023/10/25 10:16:00;;;;;;;1.70;1.05;;;;;;;;;;5014844;28;20060;-30
2023/10/25 10:18:33;;;;;;;3.80;0.73;;;;;;;;;;5014944;28;20052;-31
2023/10/25 10:21:00;;;;;;;2.05;1.30;;;;;;;;;;5014715;28;20437;-29
2023/10/25 10:23:38;;;;;;;2.30;0.82;;;;;;;;;;5013565;28;20046;-28
2023/10/25 10:26:05;;;;;;;1.17;0.80;;;;;;;;;;5014570;28;20030;-32
2023/10/25 10:28:46;;;;;;;3.55;0.93;;;;;;;;;;5014481;28;20399;-28
2023/10/25 10:31:13;;;;;;;1.85;1.00;;;;;;;;;;5013465;28;20160;-30
2023/10/25 10:33:43;;;;;;;2.05;1.13;;;;;;;;;;5014234;28;20030;-30
2023/10/25 10:36:10;;;;;;;2.05;0.90;;;;;;;;;;5014547;28;20368;-29
2023/10/25 10:38:55;;;;;;;2.58;1.00;;;;;;;;;;5014542;28;20107;-27
2023/10/25 10:41:30;;;;;;;1.73;0.90;;;;;;;;;;5014466;28;20030;-31
2023/10/25 10:43:57;;;;;;;1.77;1.00;;;;;;;;;;5014407;28;20022;-27
2023/10/25 10:46:25;;;;;;;3.10;0.95;;;;;;;;;;5014513;28;20044;-29
2023/10/25 10:48:52;;;;;;;3.35;0.75;;;;;;;;;;5014771;28;20026;-28
2023/10/25 10:51:18;;;;;;;1.15;0.63;;;;;;;;;;5014462;28;20365;-30
2023/10/25 10:53:44;;;;;;;4.75;0.90;;;;;;;;;;5014617;28;20034;-31
2023/10/25 10:56:10;;;;;;;2.65;1.00;;;;;;;;;;5013455;28;20449;-29
2023/10/25 10:58:36;;;;;;;8.23;1.00;;;;;;;;;;5014684;28;20334;-31
2023/10/25 11:01:03;;;;;;;3.72;1.33;;;;;;;;;;5014996;28;20334;-32
2023/10/25 11:03:29;;;;;;;5.05;0.98;;;;;;;;;;5018255;28;20042;-31
2023/10/25 11:05:58;;;;;;;2.25;0.80;;;;;;;;;;5017449;28;20022;-30
2023/10/25 11:08:24;;;;;;;3.35;1.08;;;;;;;;;;5018349;28;20029;-28
2023/10/25 11:10:51;;;;;;;1.25;0.80;;;;;;;;;;5018320;28;20038;-31
2023/10/25 11:13:17;;;;;;;2.45;0.80;;;;;;;;;;5018518;28;20104;-31
2023/10/25 11:15:43;;;;;;;4.15;1.20;;;;;;;;;;5017258;28;20034;-27
2023/10/25 11:18:09;;;;;;;2.92;0.95;;;;;;;;;;5018333;28;20056;-30
2023/10/25 11:20:36;;;;;;;3.20;1.17;;;;;;;;;;5018383;28;20345;-32
2023/10/25 11:23:04;;;;;;;4.07;1.05;;;;;;;;;;5018490;28;20029;-30
2023/10/25 11:25:30;;;;;;;2.38;0.90;;;;;;;;;;5018569;28;20021;-31
2023/10/25 11:27:57;;;;;;;4.78;0.82;;;;;;;;;;5017945;28;20101;-31
2023/10/25 11:30:23;;;;;;;3.90;1.08;;;;;;;;;;5017867;28;20022;-29
2023/10/25 11:32:49;;;;;;;5.82;0.90;;;;;;;;;;5018042;28;20026;-35
2023/10/25 11:35:42;;;;;;;5.30;1.10;;;;;;;;;;5018097;28;20026;-29
2023/10/25 11:38:09;;;;;;;6.43;1.35;;;;;;;;;;5015934;28;20034;-39
2023/10/25 11:40:38;;;;;;;0.80;0.77;;;;;;;;;;5017604;28;20026;-32
2023/10/25 11:43:05;;;;;;;6.55;0.98;;;;;;;;;;5017542;28;20030;-29
2023/10/25 11:45:32;;;;;;;2.80;0.85;;;;;;;;;;5017676;28;20033;-31
2023/10/25 11:47:58;;;;;;;1.08;0.88;;;;;;;;;;5017627;28;20026;-31
2023/10/25 11:50:24;;;;;;;1.25;1.00;;;;;;;;;;5017521;28;20048;-28
2023/10/25 11:52:50;;;;;;;4.60;1.02;;;;;;;;;;5017590;28;20034;-29
2023/10/25 11:55:16;;;;;;;4.60;1.02;;;;;;;;;;5017552;28;20057;-30
2023/10/25 11:57:43;;;;;;;4.97;1.08;;;;;;;;;;5017431;28;20084;-30
2023/10/25 12:00:09;;;;;;;4.00;1.25;;;;;;;;;;5017659;28;20497;-31
2023/10/25 12:02:36;;;;;;;5.72;1.48;;;;;;;;;;5015967;28;20046;-28
2023/10/25 12:05:03;;;;;;;2.75;1.00;;;;;;;;;;5016263;28;20453;-31
2023/10/25 12:07:32;;;;;;;3.70;1.05;;;;;;;;;;5017277;28;20026;-29
2023/10/25 12:10:00;;;;;;;6.75;1.20;;;;;;;;;;5017396;28;20029;-31
2023/10/25 12:12:26;;;;;;;2.92;0.93;;;;;;;;;;5016049;28;20114;-31
2023/10/25 12:14:53;;;;;;;1.83;1.10;;;;;;;;;;5017302;28;20026;-30
2023/10/25 12:17:19;;;;;;;2.10;1.02;;;;;;;;;;5017482;28;20026;-31
2023/10/25 12:19:47;;;;;;;2.30;0.85;;;;;;;;;;5016977;28;20041;-28
2023/10/25 12:22:14;;;;;;;1.10;0.60;;;;;;;;;;5016695;28;20069;-29
2023/10/25 12:24:43;;;;;;;2.53;2.22;;;;;;;;;;5016923;28;20326;-31
2023/10/25 12:27:09;;;;;;;8.32;1.02;;;;;;;;;;5017075;28;20034;-29
2023/10/25 12:29:36;;;;;;;0.82;0.65;;;;;;;;;;5016747;28;20037;-29
2023/10/25 12:32:03;;;;;;;4.22;1.23;;;;;;;;;;5016504;28;20412;-33
2023/10/25 12:34:30;;;;;;;4.88;1.48;;;;;;;;;;5015695;28;20338;-28
2023/10/25 12:36:56;;;;;;;1.13;0.80;;;;;;;;;;5016642;28;20318;-31
2023/10/25 12:39:22;;;;;;;4.18;1.30;;;;;;;;;;5016656;28;20096;-29
2023/10/25 12:41:48;;;;;;;1.75;1.25;;;;;;;;;;5016365;28;20037;-30
2023/10/25 12:44:15;;;;;;;2.20;1.23;;;;;;;;;;5016731;28;20087;-31
2023/10/25 12:46:42;;;;;;;1.80;0.80;;;;;;;;;;5015529;28;20028;-31
2023/10/25 12:49:08;;;;;;;2.05;1.10;;;;;;;;;;5016352;28;20440;-30
2023/10/25 12:51:35;;;;;;;6.80;0.95;;;;;;;;;;5016556;28;20029;-31
2023/10/25 12:54:01;;;;;;;1.05;0.77;;;;;;;;;;5016206;28;20038;-31
2023/10/25 12:56:29;;;;;;;1.67;1.00;;;;;;;;;;5016473;28;20026;-31
2023/10/25 12:58:56;;;;;;;1.88;0.60;;;;;;;;;;5016087;28;20029;-31
2023/10/25 13:01:25;;;;;;;3.58;1.00;;;;;;;;;;5016019;28;20030;-28
2023/10/25 13:03:51;;;;;;;1.33;1.15;;;;;;;;;;5014785;28;20189;-30
2023/10/25 13:06:18;;;;;;;1.27;0.77;;;;;;;;;;5015970;28;20030;-31
2023/10/25 13:08:44;;;;;;;2.35;0.73;;;;;;;;;;5016241;28;20440;-31
2023/10/25 13:11:10;;;;;;;2.80;0.85;;;;;;;;;;5016271;28;20036;-31
2023/10/25 13:13:36;;;;;;;2.72;1.00;;;;;;;;;;5016198;28;20029;-26
2023/10/25 13:16:03;;;;;;;2.95;1.27;;;;;;;;;;5016177;28;20034;-27
2023/10/25 13:18:29;;;;;;;1.88;0.80;;;;;;;;;;5015908;28;20026;-31
2023/10/25 13:20:55;;;;;;;2.65;0.70;;;;;;;;;;5016053;28;20033;-31
2023/10/25 13:23:23;;;;;;;2.35;0.70;;;;;;;;;;5015608;28;20060;-31
2023/10/25 13:25:49;;;;;;;3.38;0.90;;;;;;;;;;5015733;28;20026;-30
2023/10/25 13:28:17;;;;;;;0.93;0.73;;;;;;;;;;5016168;28;20088;-30
2023/10/25 13:30:43;;;;;;;1.67;0.98;;;;;;;;;;5015902;28;20026;-29
2023/10/25 13:33:09;;;;;;;2.50;1.08;;;;;;;;;;5016223;28;20455;-32
2023/10/25 13:35:35;;;;;;;1.23;0.82;;;;;;;;;;5015952;28;20053;-27
2023/10/25 13:38:02;;;;;;;5.70;1.02;;;;;;;;;;5015946;28;20029;-30
2023/10/25 13:40:28;;;;;;;2.38;1.27;;;;;;;;;;5015920;28;20033;-30
2023/10/25 13:42:54;;;;;;;1.95;0.90;;;;;;;;;;5015786;28;20079;-28
2023/10/25 13:45:20;;;;;;;1.80;0.90;;;;;;;;;;5015898;28;20026;-30
2023/10/25 13:47:47;;;;;;;1.08;0.85;;;;;;;;;;5015675;28;20041;-28
2023/10/25 13:50:13;;;;;;;2.00;1.15;;;;;;;;;;5015359;28;20452;-31
2023/10/25 13:52:39;;;;;;;3.33;0.90;;;;;;;;;;5015525;28;20041;-29
2023/10/25 13:55:05;;;;;;;1.73;0.63;;;;;;;;;;5015256;28;20053;-27
2023/10/25 13:57:32;;;;;;;2.22;0.65;;;;;;;;;;5015528;28;20080;-30
2023/10/25 13:59:58;;;;;;;1.33;0.85;;;;;;;;;;5015757;28;20030;-31
2023/10/25 14:02:24;;;;;;;5.40;0.93;;;;;;;;;;5015078;28;20463;-31
2023/10/25 14:04:52;;;;;;;1.00;0.80;;;;;;;;;;5015060;28;20061;-29
2023/10/25 14:07:18;;;;;;;3.88;1.30;;;;;;;;;;5015194;28;20108;-28
2023/10/25 14:09:44;;;;;;;1.38;0.88;;;;;;;;;;5015120;28;20037;-33
2023/10/25 14:12:10;;;;;;;3.85;0.90;;;;;;;;;;5015297;28;20049;-28
2023/10/25 14:14:37;;;;;;;1.80;1.05;;;;;;;;;;5015185;28;20026;-39
2023/10/25 14:17:03;;;;;;;2.63;1.00;;;;;;;;;;5015022;28;20032;-30
2023/10/25 14:19:29;;;;;;;5.28;0.80;;;;;;;;;;5015027;28;20033;-32
2023/10/25 14:21:55;;;;;;;1.73;0.80;;;;;;;;;;5014772;28;20026;-28
2023/10/25 14:24:21;;;;;;;2.63;1.00;;;;;;;;;;5014966;28;20469;-32
2023/10/25 14:26:47;;;;;;;3.53;0.90;;;;;;;;;;5014887;28;20026;-28
2023/10/25 14:29:13;;;;;;;1.02;0.80;;;;;;;;;;5014869;28;20093;-28
2023/10/25 14:31:40;;;;;;;3.47;0.82;;;;;;;;;;5014846;28;20029;-27
2023/10/25 14:34:06;;;;;;;2.47;0.93;;;;;;;;;;5014820;28;20084;-31
2023/10/25 14:36:32;;;;;;;1.48;0.85;;;;;;;;;;5014026;28;20025;-31
2023/10/25 14:38:58;;;;;;;4.47;1.13;;;;;;;;;;5014783;28;20048;-30
2023/10/25 14:41:25;;;;;;;0.90;0.77;;;;;;;;;;5013819;28;20022;-30